Time;durP1;ratioP1;P1;durP2;ratioP2;P2;SDS_P1;SDS_P2;PMS_P1;PMS_P2;Temp;Humidity;BMP_temperature;BMP_pressure;BME280_temperature;BME280_humidity;BME280_pressure;Samples;Min_cycle;Max_cycle;Signal;HPM_P1;HPM_P2
2022/08/03 00:09:56;;;;;;;0.20;0.00;;;28.10;99.90;;;;;;25698884;23;20194;-68
2022/08/03 00:20:00;;;;;;;0.20;0.00;;;28.30;99.90;;;;;;25698724;23;20209;-68
2022/08/03 00:30:07;;;;;;;0.20;0.00;;;28.20;99.90;;;;;;25698042;23;20173;-67
2022/08/03 00:40:13;;;;;;;0.20;0.00;;;28.10;99.90;;;;;;25698088;23;20186;-67
2022/08/03 00:50:19;;;;;;;0.20;0.00;;;28.00;99.90;;;;;;25672054;23;20201;-67
2022/08/03 01:00:25;;;;;;;0.20;0.00;;;28.10;99.90;;;;;;25697104;23;20402;-67
2022/08/03 01:10:37;;;;;;;0.20;0.00;;;28.10;99.90;;;;;;25670359;23;20189;-68
2022/08/03 01:20:44;;;;;;;0.20;0.00;;;28.10;99.90;;;;;;25696611;23;20257;-68
2022/08/03 01:30:53;;;;;;;0.20;0.00;;;27.90;99.90;;;;;;25664981;23;20170;-69
2022/08/03 01:40:57;;;;;;;0.20;0.00;;;28.00;99.90;;;;;;25696408;23;20354;-67
2022/08/03 01:51:03;;;;;;;0.20;0.00;;;28.10;99.90;;;;;;25669994;23;20252;-68
2022/08/03 02:01:09;;;;;;;0.20;0.00;;;27.80;99.90;;;;;;25675162;23;20209;-68
2022/08/03 02:11:14;;;;;;;0.20;0.00;;;27.90;99.90;;;;;;25703348;23;20181;-67
2022/08/03 02:21:19;;;;;;;0.20;0.00;;;27.90;99.90;;;;;;25703038;23;20194;-68
2022/08/03 02:31:46;;;;;;;0.20;0.00;;;27.80;99.90;;;;;;25702793;23;20184;-68
2022/08/03 02:42:00;;;;;;;0.20;0.00;;;28.00;99.90;;;;;;25702884;23;20194;-67
2022/08/03 02:52:10;;;;;;;0.20;0.00;;;28.00;99.90;;;;;;25702094;23;20197;-68
2022/08/03 03:02:19;;;;;;;0.20;0.00;;;27.70;99.90;;;;;;25701673;23;20197;-69
2022/08/03 03:12:26;;;;;;;0.20;0.00;;;27.30;99.90;;;;;;25701557;23;20170;-68
2022/08/03 03:22:33;;;;;;;0.20;0.00;;;27.40;99.90;;;;;;25675071;23;20253;-68
2022/08/03 03:32:39;;;;;;;0.20;0.00;;;27.20;99.90;;;;;;25700761;23;20150;-69
2022/08/03 03:42:43;;;;;;;0.20;0.00;;;26.80;99.90;;;;;;25674958;23;20190;-69
2022/08/03 03:52:48;;;;;;;0.20;0.00;;;26.30;99.90;;;;;;25674281;23;20174;-67
2022/08/03 04:02:52;;;;;;;0.20;0.00;;;26.00;99.90;;;;;;25698880;23;20217;-68
2022/08/03 04:13:02;;;;;;;0.20;0.00;;;25.50;99.90;;;;;;25698062;23;20197;-68
2022/08/03 04:23:07;;;;;;;0.20;0.00;;;25.60;99.90;;;;;;25698330;23;20186;-68
2022/08/03 04:33:20;;;;;;;0.20;0.00;;;25.40;99.90;;;;;;25698027;23;20177;-68
2022/08/03 04:43:26;;;;;;;0.20;0.10;;;25.40;99.90;;;;;;25684918;23;20273;-69
2022/08/03 04:53:32;;;;;;;0.20;0.00;;;25.20;99.90;;;;;;25696292;23;20169;-68
2022/08/03 05:03:36;;;;;;;0.20;0.00;;;25.00;99.90;;;;;;25695901;23;20210;-67
2022/08/03 05:13:41;;;;;;;0.20;0.00;;;25.10;99.90;;;;;;25695573;23;20170;-68
2022/08/03 05:23:45;;;;;;;0.20;0.00;;;25.30;99.90;;;;;;25669471;23;20261;-68
2022/08/03 05:33:50;;;;;;;0.20;0.00;;;25.40;99.90;;;;;;25698834;23;20216;-67
2022/08/03 05:43:54;;;;;;;0.20;0.10;;;25.40;99.90;;;;;;25701445;23;20190;-68
2022/08/03 05:54:00;;;;;;;0.20;0.00;;;25.80;99.90;;;;;;25676097;23;20258;-69
2022/08/03 06:04:04;;;;;;;0.20;0.00;;;26.00;99.90;;;;;;25700572;23;20202;-67
2022/08/03 06:14:09;;;;;;;0.20;0.00;;;26.40;99.90;;;;;;25701109;23;20193;-68
2022/08/03 06:24:13;;;;;;;0.20;0.00;;;26.90;99.90;;;;;;25700096;23;20206;-67
2022/08/03 06:34:19;;;;;;;0.20;0.10;;;27.40;99.90;;;;;;25699050;23;20170;-69
2022/08/03 06:44:37;;;;;;;0.20;0.00;;;27.80;99.90;;;;;;25697213;23;20213;-67
2022/08/03 06:54:43;;;;;;;0.20;0.00;;;28.20;99.90;;;;;;25671975;23;20265;-68
2022/08/03 07:04:47;;;;;;;0.20;0.00;;;28.40;99.90;;;;;;25671352;23;20225;-67
2022/08/03 07:14:52;;;;;;;0.20;0.00;;;28.60;99.90;;;;;;25697087;23;20173;-69
2022/08/03 07:25:03;;;;;;;0.20;0.00;;;29.10;99.90;;;;;;25695539;23;20256;-68
2022/08/03 07:35:10;;;;;;;0.20;0.00;;;29.50;99.90;;;;;;25692854;23;20159;-67
2022/08/03 07:45:27;;;;;;;0.20;0.10;;;29.90;99.90;;;;;;25693069;23;20209;-68
2022/08/03 07:55:33;;;;;;;0.20;0.00;;;30.00;99.90;;;;;;25693610;23;20197;-69
2022/08/03 08:05:37;;;;;;;0.20;0.00;;;29.80;99.90;;;;;;25693488;23;20261;-70
2022/08/03 08:15:42;;;;;;;0.20;0.00;;;29.70;99.90;;;;;;25694494;23;20201;-69
2022/08/03 08:25:47;;;;;;;0.20;0.00;;;29.50;99.90;;;;;;25693599;23;20181;-66
2022/08/03 08:35:53;;;;;;;0.20;0.00;;;29.70;99.90;;;;;;25693504;23;20222;-67
2022/08/03 08:45:59;;;;;;;0.20;0.00;;;29.70;99.90;;;;;;25692108;23;20539;-69
2022/08/03 08:56:05;;;;;;;0.20;0.00;;;29.60;99.90;;;;;;25692026;23;20194;-67
2022/08/03 09:06:09;;;;;;;0.20;0.00;;;29.60;99.90;;;;;;25689114;23;20210;-69
2022/08/03 09:16:17;;;;;;;0.20;0.00;;;29.60;99.90;;;;;;25664835;23;20266;-69
2022/08/03 09:26:22;;;;;;;0.20;0.00;;;29.50;99.90;;;;;;25687344;23;20170;-69
2022/08/03 09:36:41;;;;;;;0.20;0.00;;;29.40;99.90;;;;;;25688261;23;20205;-69
2022/08/03 09:46:49;;;;;;;0.20;0.00;;;29.80;99.90;;;;;;25687934;23;20170;-69
2022/08/03 09:56:54;;;;;;;0.20;0.00;;;29.90;99.90;;;;;;25688094;23;20254;-69
2022/08/03 10:07:08;;;;;;;0.20;0.00;;;30.10;99.90;;;;;;25685601;23;20213;-68
2022/08/03 10:17:13;;;;;;;0.20;0.00;;;30.30;99.90;;;;;;25688668;23;20224;-69
2022/08/03 10:27:19;;;;;;;0.20;0.00;;;30.50;99.90;;;;;;25670098;23;20181;-67
2022/08/03 10:37:26;;;;;;;0.20;0.00;;;30.50;99.90;;;;;;25694819;23;20202;-70
2022/08/03 10:47:31;;;;;;;0.20;0.00;;;31.00;99.90;;;;;;25693309;23;20177;-70
2022/08/03 10:57:48;;;;;;;0.20;0.00;;;31.40;99.90;;;;;;25693400;23;20206;-69
2022/08/03 11:08:23;;;;;;;0.20;0.00;;;31.70;99.90;;;;;;25691464;23;20257;-67
2022/08/03 11:18:29;;;;;;;0.20;0.00;;;32.20;99.90;;;;;;25693892;23;20190;-69
2022/08/03 11:28:33;;;;;;;0.20;0.00;;;32.60;99.90;;;;;;25694382;23;20173;-69
2022/08/03 11:39:13;;;;;;;0.20;0.00;;;33.00;99.90;;;;;;25695558;23;20210;-68
2022/08/03 11:49:22;;;;;;;0.20;0.00;;;33.60;99.90;;;;;;25694673;23;20184;-70
2022/08/03 11:59:34;;;;;;;0.20;0.00;;;34.40;99.90;;;;;;25693951;23;20197;-68
2022/08/03 12:09:40;;;;;;;0.20;0.00;;;34.80;99.90;;;;;;25694959;23;20244;-69
2022/08/03 12:19:45;;;;;;;0.20;0.00;;;36.20;99.90;;;;;;25687720;23;20185;-69
2022/08/03 12:29:52;;;;;;;0.20;0.00;;;37.10;99.90;;;;;;25689700;23;20173;-68
2022/08/03 12:40:05;;;;;;;0.20;0.00;;;37.20;99.90;;;;;;25684104;23;20182;-69
2022/08/03 12:50:25;;;;;;;0.20;0.00;;;37.30;99.90;;;;;;25691921;23;20217;-68
2022/08/03 13:00:31;;;;;;;0.20;0.00;;;37.80;99.90;;;;;;25692360;23;20252;-69
2022/08/03 13:10:35;;;;;;;0.20;0.00;;;38.10;99.90;;;;;;25690969;23;20201;-68
2022/08/03 13:20:42;;;;;;;0.20;0.00;;;38.50;99.90;;;;;;25692964;23;20190;-68
2022/08/03 13:30:46;;;;;;;0.20;0.00;;;38.50;99.90;;;;;;25689589;23;20177;-68
2022/08/03 13:40:52;;;;;;;0.20;0.00;;;37.60;99.90;;;;;;25688492;23;20237;-68
2022/08/03 13:50:55;;;;;;;0.20;0.00;;;37.10;99.90;;;;;;25655972;23;20645;-69
2022/08/03 14:01:01;;;;;;;0.20;0.00;;;38.10;99.90;;;;;;25670898;23;20221;-68
2022/08/03 14:11:05;;;;;;;0.20;0.00;;;38.60;99.90;;;;;;25695962;23;20186;-68
2022/08/03 14:21:10;;;;;;;0.20;0.00;;;39.40;99.90;;;;;;25694465;23;20194;-68
2022/08/03 14:31:14;;;;;;;0.20;0.00;;;39.00;99.90;;;;;;25669702;23;20266;-69
2022/08/03 14:41:39;;;;;;;0.20;0.00;;;39.70;99.90;;;;;;25695297;23;20206;-68
2022/08/03 14:51:43;;;;;;;0.20;0.00;;;39.40;99.90;;;;;;25670542;23;20174;-69
2022/08/03 15:01:57;;;;;;;0.20;0.00;;;39.30;99.90;;;;;;25668275;23;20201;-69
2022/08/03 15:12:09;;;;;;;0.20;0.00;;;39.00;99.90;;;;;;25693768;23;20200;-69
2022/08/03 15:22:14;;;;;;;0.20;0.00;;;38.20;99.90;;;;;;25691950;23;20229;-68
2022/08/03 15:32:22;;;;;;;0.20;0.00;;;39.40;99.90;;;;;;25694203;23;20150;-67
2022/08/03 15:42:28;;;;;;;0.20;0.00;;;38.70;99.90;;;;;;25692865;23;20280;-68
2022/08/03 15:52:32;;;;;;;0.20;0.00;;;37.10;99.90;;;;;;25693285;23;20167;-68
2022/08/03 16:02:37;;;;;;;0.20;0.00;;;36.10;99.90;;;;;;25692864;23;20208;-69
2022/08/03 16:12:41;;;;;;;0.20;0.00;;;34.60;99.90;;;;;;25665878;23;20166;-69
2022/08/03 16:22:48;;;;;;;0.20;0.00;;;33.60;99.90;;;;;;25691827;23;20182;-69
2022/08/03 16:32:52;;;;;;;0.20;0.00;;;33.20;99.90;;;;;;25689822;23;20174;-69
2022/08/03 16:42:57;;;;;;;0.20;0.00;;;32.90;99.90;;;;;;25690501;23;20194;-67
2022/08/03 16:53:05;;;;;;;0.20;0.00;;;32.30;99.90;;;;;;25660180;23;20193;-69
2022/08/03 17:03:14;;;;;;;0.20;0.00;;;32.30;99.90;;;;;;25663701;23;20264;-71
2022/08/03 17:13:23;;;;;;;0.20;0.00;;;32.20;99.90;;;;;;25690285;23;20173;-69
2022/08/03 17:23:54;;;;;;;0.20;0.00;;;32.80;99.90;;;;;;25692787;23;20186;-70
2022/08/03 17:34:01;;;;;;;0.20;0.00;;;35.10;99.90;;;;;;25701445;23;20184;-70
2022/08/03 17:44:08;;;;;;;0.20;0.00;;;35.80;99.90;;;;;;25700404;23;20186;-69
2022/08/03 17:54:38;;;;;;;0.20;0.00;;;34.70;99.90;;;;;;25674527;23;20169;-69
2022/08/03 18:05:06;;;;;;;0.20;0.00;;;33.60;99.90;;;;;;25671521;23;20232;-69
2022/08/03 18:15:25;;;;;;;0.20;0.00;;;32.20;99.90;;;;;;25698862;23;20159;-70
2022/08/03 18:25:34;;;;;;;0.20;0.00;;;31.10;99.90;;;;;;25696474;23;20188;-70
2022/08/03 18:35:52;;;;;;;0.20;0.00;;;30.50;99.90;;;;;;25646142;23;20182;-68
2022/08/03 18:45:59;;;;;;;0.20;0.00;;;30.70;99.90;;;;;;25697805;23;20189;-68
2022/08/03 18:56:12;;;;;;;0.20;0.00;;;29.80;99.90;;;;;;25694961;23;20170;-69
2022/08/03 19:06:25;;;;;;;0.20;0.10;;;29.40;99.90;;;;;;25694412;23;20255;-68
2022/08/03 19:16:34;;;;;;;0.20;0.00;;;29.30;99.90;;;;;;25694398;23;20176;-70
2022/08/03 19:26:43;;;;;;;0.20;0.00;;;29.40;99.90;;;;;;25696357;23;20241;-69
2022/08/03 19:36:55;;;;;;;0.20;0.00;;;29.40;99.90;;;;;;25694658;23;20184;-69
2022/08/03 19:47:09;;;;;;;0.20;0.00;;;29.30;99.90;;;;;;25698037;23;20186;-70
2022/08/03 19:57:22;;;;;;;0.20;0.10;;;28.90;99.90;;;;;;25697899;23;20170;-68
2022/08/03 20:07:30;;;;;;;0.20;0.10;;;28.80;99.90;;;;;;25670588;23;20205;-69
2022/08/03 20:17:34;;;;;;;0.20;0.00;;;28.80;99.90;;;;;;25692039;23;20254;-68
2022/08/03 20:28:05;;;;;;;0.20;0.00;;;28.80;99.90;;;;;;25662687;23;20174;-68
2022/08/03 20:38:16;;;;;;;0.20;0.00;;;28.70;99.90;;;;;;25689847;23;20200;-69
2022/08/03 20:48:23;;;;;;;0.20;0.03;;;29.10;99.90;;;;;;25695533;23;20174;-70
2022/08/03 20:58:27;;;;;;;0.20;0.10;;;29.90;99.90;;;;;;25695847;23;20217;-69
2022/08/03 21:08:38;;;;;;;0.20;0.00;;;29.80;99.90;;;;;;25695693;23;20190;-69
2022/08/03 21:18:52;;;;;;;0.20;0.00;;;29.70;99.90;;;;;;25695564;23;20194;-69
2022/08/03 21:28:59;;;;;;;0.20;0.00;;;29.40;99.90;;;;;;25695144;23;20201;-69
2022/08/03 21:39:05;;;;;;;0.20;0.00;;;29.50;99.90;;;;;;25693027;23;20346;-68
2022/08/03 21:49:12;;;;;;;0.20;0.00;;;29.60;99.90;;;;;;25665361;23;20170;-70
2022/08/03 21:59:37;;;;;;;0.20;0.00;;;29.40;99.90;;;;;;25691272;23;20206;-69
2022/08/03 22:09:44;;;;;;;0.20;0.00;;;29.10;99.90;;;;;;25692425;23;20261;-69
2022/08/03 22:19:54;;;;;;;0.20;0.00;;;28.50;99.90;;;;;;25698943;23;20196;-69
2022/08/03 22:30:01;;;;;;;0.20;0.00;;;28.40;99.90;;;;;;25693648;23;20170;-69
2022/08/03 22:40:08;;;;;;;0.20;0.00;;;28.30;99.90;;;;;;25697822;23;20197;-69
2022/08/03 22:50:14;;;;;;;0.20;0.00;;;28.40;99.90;;;;;;25671468;23;20273;-69
2022/08/03 23:00:36;;;;;;;0.20;0.00;;;28.10;99.90;;;;;;25698163;23;20201;-70
2022/08/03 23:10:43;;;;;;;0.20;0.00;;;27.60;99.90;;;;;;25697965;23;20213;-69
2022/08/03 23:20:51;;;;;;;0.20;0.10;;;27.50;99.90;;;;;;25699819;23;20516;-68
2022/08/03 23:30:58;;;;;;;0.20;0.10;;;27.50;99.90;;;;;;25674333;23;20166;-68
2022/08/03 23:41:04;;;;;;;0.20;0.00;;;27.40;99.90;;;;;;25699345;23;20197;-68
2022/08/03 23:51:13;;;;;;;0.20;0.00;;;27.00;99.90;;;;;;25648926;23;20267;-69
